Create Custom Reports and Graphics: Custom Report

Cow Mountain

Current Conditions

9/28/21 1:30 PM (-07:00)
Updated Every 15 Minutes
Rain 24Hr 0.30 In
Storm Total 0.37 In
Temp 55.2 °F   1.4
Wind Dir WNW | 283 °
Wind Spd 10.8 mph   2.0
Wind Gust 25.9 mph   7.9
BatVolt 13.8 V   0.0
Monthly Rain 0.69 In
Seasonal Rainfall 0.69 In

Today & Yesterday

Midnight to Midnight

9/28/21 1:30 PM (-07:00)
Updated Every 15 Minutes
Daily Max Temp 56.5 °F   0.8
Time of Max Temp 1327
Daily Min Temp 40.3 °F   8.4
Time of Min Temp 0439
Daily Max Wind 32.4 mph   0.4
Time of Max Wind 0152
Max Wind Dir NNW | 331 °
Daily Rain 0.00 In
Daily Max Rain Intensity 0.01 In/Hr
Time of Max Rain Intensity 0101
Yesterday's Max Temp 55.7 °F
Yesterday’s Min Temp 42.3 °F
Yesterday's Max Wind 43.8 mph
Yesterday's Rainfall 0.37 In

Last 7 Days

Cow Mountain

Hourly Data | America/Los_Angeles
as of 9/28/21 1:42 PM PDT
Date & Time Temp (°F) WindChill (°F) Wind Dir (°) Wind Spd (mph) Wind Gust (mph) BatVolt (V) Latest Rain (In) Max Rain Intensity (In/Hr) Rain 24Hr (In) Storm Total (In) Daily Rain (In) Daily Min Temp (°F) Daily Max Temp (°F)
9/28/21 - 1300 51.4 - W | 277 14.4 25.0 13.8 0.00 - 0.33 0.37 0.00 40.3 54.2
9/28/21 - 1200 49.1 43.8 W | 271 13.7 23.7 13.8 0.00 - 0.33 0.37 0.00 40.3 51.0
9/28/21 - 1100 48.0 43.7 W | 278 9.6 17.1 13.9 0.00 - 0.33 0.37 0.00 40.3 51.0
9/28/21 - 1000 46.3 43.1 WNW | 300 6.1 13.8 13.9 0.00 - 0.33 0.37 0.00 40.3 51.0
9/28/21 - 0900 47.9 44.5 NNW | 340 7.4 15.8 13.9 0.00 - 0.34 0.37 0.00 40.3 51.0
9/28/21 - 0800 46.6 42.5 NNW | 335 8.3 14.0 14.0 0.00 - 0.34 0.37 0.00 40.3 48.6
9/28/21 - 0700 43.4 38.7 NW | 314 8.0 16.9 12.7 0.00 - 0.35 0.37 0.00 40.3 45.8
9/28/21 - 0600 41.4 36.4 WNW | 301 7.8 16.2 12.7 0.00 - 0.35 0.37 0.00 40.3 43.0
9/28/21 - 0500 40.7 34.7 NW | 312 9.6 26.7 12.8 0.00 - 0.36 0.37 0.00 40.3 43.0
9/28/21 - 0400 41.1 34.0 WNW | 293 12.6 27.0 12.9 0.00 - 0.37 0.37 0.00 40.5 43.0
9/28/21 - 0300 41.7 34.1 WNW | 293 14.6 32.0 12.9 0.00 - 0.37 0.37 0.00 40.9 43.0
9/28/21 - 0200 42.1 36.0 NW | 312 10.4 32.4 12.9 0.00 - 0.37 0.37 0.00 40.9 43.0
9/28/21 - 0100 42.6 36.9 WNW | 290 9.9 22.1 13.0 0.01 0.01 0.37 0.37 0.37 42.3 55.7
9/28/21 - 0000 43.1 37.4 WNW | 284 10.2 25.4 13.0 0.00 - 0.36 0.36 0.36 42.8 55.7
9/27/21 - 2300 44.2 37.8 W | 270 12.9 30.7 13.0 0.00 - 0.36 0.36 0.36 43.5 55.7
9/27/21 - 2200 45.4 37.3 W | 266 21.1 43.6 13.0 0.01 0.01 0.36 0.36 0.36 44.7 55.7
9/27/21 - 2100 46.2 38.9 W | 264 19.1 43.8 13.0 0.00 - 0.35 0.35 0.35 45.8 55.7
9/27/21 - 2000 46.2 38.6 W | 264 19.8 39.9 13.0 0.01 0.03 0.35 0.35 0.35 45.9 55.7
9/27/21 - 1900 47.1 40.1 W | 272 18.3 42.1 13.1 0.02 0.08 0.34 0.34 0.34 45.9 55.7
9/27/21 - 1800 50.0 43.8 W | 266 19.2 36.8 13.2 0.04 0.22 0.32 0.32 0.32 48.7 55.7
9/27/21 - 1700 52.7 - W | 268 20.6 36.4 13.9 0.06 0.22 0.28 0.28 0.28 48.7 55.7
9/27/21 - 1600 54.0 - W | 268 18.2 26.5 13.8 0.05 0.20 0.22 0.22 0.22 48.7 55.7
9/27/21 - 1500 54.4 - WSW | 251 15.5 24.8 13.8 0.07 0.27 0.17 0.17 0.17 48.7 55.7
9/27/21 - 1400 54.0 - WSW | 250 13.0 23.4 13.8 0.06 0.17 0.10 0.10 0.10 48.7 55.7
9/27/21 - 1300 53.6 - WSW | 252 13.1 21.5 13.8 0.00 - 0.04 - 0.04 48.7 55.7
9/27/21 - 1200 53.1 - W | 265 11.8 19.7 13.8 0.00 - 0.04 - 0.04 48.7 55.7
9/27/21 - 1100 52.0 - W | 266 11.6 17.3 13.8 0.00 - 0.04 - 0.04 48.7 55.7
9/27/21 - 1000 51.5 - W | 266 14.2 23.0 13.8 0.01 0.01 0.04 - 0.04 48.7 55.7
9/27/21 - 0900 51.2 - W | 269 15.3 25.9 13.8 0.00 - 0.03 - 0.03 48.7 55.7
9/27/21 - 0800 50.6 - W | 268 15.9 24.1 13.9 0.01 0.01 0.03 - 0.03 48.7 55.7
9/27/21 - 0700 50.6 - W | 268 18.5 29.4 12.8 0.00 - 0.02 - 0.02 48.7 55.7
9/27/21 - 0600 50.6 - W | 269 17.2 32.9 12.8 0.01 0.01 0.02 - 0.02 48.7 55.7
9/27/21 - 0500 50.3 - W | 280 18.4 31.6 12.9 0.01 0.01 0.01 - 0.01 48.7 55.7
9/27/21 - 0400 50.0 44.5 WNW | 290 15.6 25.4 12.9 0.00 - - - 0.00 48.7 55.7
9/27/21 - 0300 52.0 - WNW | 293 15.3 21.9 12.9 0.00 - - - 0.00 51.3 55.7
9/27/21 - 0200 53.4 - WNW | 292 16.0 21.7 13.0 0.00 - - - 0.00 52.1 55.7
9/27/21 - 0100 54.6 - WNW | 294 15.2 20.0 13.0 0.00 - - - 0.00 50.1 69.0
9/27/21 - 0000 57.0 - WNW | 295 16.2 21.5 13.0 0.00 - - - 0.00 50.1 69.0
9/26/21 - 2300 53.8 - WNW | 296 17.0 21.5 13.0 0.00 - - - 0.00 50.1 69.0
9/26/21 - 2200 55.7 - WNW | 291 16.0 25.6 13.0 0.00 - - - 0.00 52.2 69.0
9/26/21 - 2100 54.8 - W | 280 14.2 22.1 13.0 0.00 - - - 0.00 53.0 69.0
9/26/21 - 2000 56.0 - W | 278 14.2 22.6 13.1 0.00 - - - 0.00 54.7 69.0
9/26/21 - 1900 60.0 - W | 274 14.5 19.7 13.1 0.00 - - - 0.00 58.0 69.0
9/26/21 - 1800 62.7 - W | 276 17.3 24.1 13.6 0.00 - - - 0.00 58.5 69.0
9/26/21 - 1700 66.2 - W | 268 14.0 22.8 13.6 0.00 - - - 0.00 58.5 69.0
9/26/21 - 1600 67.2 - WSW | 258 13.8 23.0 13.6 0.00 - - - 0.00 58.5 69.0
9/26/21 - 1500 66.2 - WSW | 258 13.6 24.6 13.6 0.00 - - - 0.00 58.5 68.0
9/26/21 - 1400 64.1 - W | 261 14.3 20.8 13.6 0.00 - - - 0.00 58.5 66.9
9/26/21 - 1300 63.8 - W | 270 11.1 24.6 13.6 0.00 - - - 0.00 58.5 65.7
9/26/21 - 1200 64.4 - W | 277 8.2 13.2 13.6 0.00 - - - 0.00 58.5 65.5
9/26/21 - 1100 64.0 - W | 276 7.4 13.2 13.7 0.00 - - - 0.00 58.5 65.2
9/26/21 - 1000 63.3 - WNW | 285 6.4 10.7 13.7 0.00 - - - 0.00 58.5 65.0
9/26/21 - 0900 63.4 - WNW | 288 8.0 13.8 13.7 0.00 - - - 0.00 58.5 65.0
9/26/21 - 0800 63.4 - WNW | 294 10.3 14.9 13.7 0.00 - - - 0.00 58.5 65.0
9/26/21 - 0700 63.2 - WNW | 295 11.8 15.1 12.8 0.00 - - - 0.00 58.5 65.0
9/26/21 - 0600 62.6 - WNW | 294 11.0 14.9 12.8 0.00 - - - 0.00 58.5 65.0
9/26/21 - 0500 63.3 - W | 280 8.0 10.7 12.9 0.00 - - - 0.00 58.5 65.0
9/26/21 - 0400 63.7 - WNW | 286 9.1 13.4 12.9 0.00 - - - 0.00 58.5 64.9
9/26/21 - 0300 61.8 - WNW | 287 11.2 14.9 12.9 0.00 - - - 0.00 58.5 63.6
9/26/21 - 0200 60.0 - W | 270 12.6 16.7 13.0 0.00 - - - 0.00 58.5 61.5
9/26/21 - 0100 61.4 - W | 265 10.7 14.5 13.0 0.00 - - - 0.00 59.6 78.1
9/26/21 - 0000 61.0 - W | 271 10.6 14.0 13.0 0.00 - - - 0.00 59.6 78.1
9/25/21 - 2300 60.9 - W | 267 7.3 10.5 13.0 0.00 - - - 0.00 59.6 78.1
9/25/21 - 2200 62.3 - W | 274 9.3 13.8 13.0 0.00 - - - 0.00 60.5 78.1
9/25/21 - 2100 64.5 - WSW | 251 7.2 11.2 13.0 0.00 - - - 0.00 63.5 78.1
9/25/21 - 2000 66.2 - S | 182 5.3 8.3 13.0 0.00 - - - 0.00 64.4 78.1
9/25/21 - 1900 70.5 - SSE | 155 4.2 11.4 13.1 0.00 - - - 0.00 66.2 78.1
9/25/21 - 1800 73.6 - SW | 221 6.9 14.0 13.5 0.00 - - - 0.00 66.2 78.1
9/25/21 - 1700 74.6 - SW | 235 8.8 16.7 13.5 0.00 - - - 0.00 66.2 78.1
9/25/21 - 1600 74.9 - WSW | 242 9.9 18.8 13.5 0.00 - - - 0.00 66.2 78.1
9/25/21 - 1500 75.1 - SW | 228 8.4 17.8 13.5 0.00 - - - 0.00 66.2 78.1
9/25/21 - 1400 73.8 - SW | 225 8.1 16.2 13.5 0.00 - - - 0.00 66.2 76.0
9/25/21 - 1300 73.0 - SW | 214 9.3 20.6 13.5 0.00 - - - 0.00 66.2 76.0
9/25/21 - 1200 73.0 - SSW | 201 7.5 18.4 13.5 0.00 - - - 0.00 66.2 76.0
9/25/21 - 1100 73.6 - S | 184 4.3 11.6 13.6 0.00 - - - 0.00 66.2 76.0
9/25/21 - 1000 73.6 - E | 99 4.8 10.1 13.6 0.00 - - - 0.00 66.2 76.0
9/25/21 - 0900 71.5 - E | 89 6.3 11.6 13.6 0.00 - - - 0.00 66.2 73.2
9/25/21 - 0800 69.6 - ENE | 78 5.1 8.1 13.7 0.00 - - - 0.00 66.2 71.1
9/25/21 - 0700 70.8 - SW | 218 3.4 5.5 12.8 0.00 - - - 0.00 66.2 71.1
9/25/21 - 0600 69.8 - W | 274 7.2 8.3 12.9 0.00 - - - 0.00 66.2 70.7
9/25/21 - 0500 69.4 - W | 276 9.5 11.4 12.9 0.00 - - - 0.00 66.2 70.7
9/25/21 - 0400 67.9 - WNW | 284 11.1 14.0 12.9 0.00 - - - 0.00 66.2 70.7
9/25/21 - 0300 67.5 - WNW | 292 12.8 14.9 12.9 0.00 - - - 0.00 66.2 70.7
9/25/21 - 0200 69.3 - WNW | 294 11.6 14.7 13.0 0.00 - - - 0.00 67.3 70.7
9/25/21 - 0100 70.0 - WNW | 292 11.1 12.5 13.0 0.00 - - - 0.00 69.3 88.3
9/25/21 - 0000 70.4 - WNW | 286 9.4 11.2 13.0 0.00 - - - 0.00 69.3 88.3
9/24/21 - 2300 71.5 - WNW | 283 9.6 11.2 13.0 0.00 - - - 0.00 70.7 88.3
9/24/21 - 2200 71.1 - WNW | 286 9.9 12.5 13.0 0.00 - - - 0.00 70.7 88.3
9/24/21 - 2100 71.6 - W | 280 10.1 12.7 13.0 0.00 - - - 0.00 70.8 88.3
9/24/21 - 2000 71.8 - W | 278 10.9 14.9 13.0 0.00 - - - 0.00 71.1 88.3
9/24/21 - 1900 74.9 - W | 272 13.7 22.1 13.1 0.00 - - - 0.00 72.6 88.3
9/24/21 - 1800 78.2 - W | 270 15.9 25.2 13.5 0.00 - - - 0.00 73.1 88.3
9/24/21 - 1700 82.5 - WSW | 255 12.2 23.4 13.4 0.00 - - - 0.00 73.1 88.3
9/24/21 - 1600 84.5 - WSW | 244 8.7 18.4 13.4 0.00 - - - 0.00 73.1 88.3
9/24/21 - 1500 84.0 - SW | 234 5.9 14.9 13.4 0.00 - - - 0.00 73.1 87.7
9/24/21 - 1400 80.9 - WSW | 251 9.5 17.8 13.4 0.00 - - - 0.00 73.1 82.8
9/24/21 - 1300 80.9 - WSW | 256 4.0 15.6 13.4 0.00 - - - 0.00 73.1 82.5
9/24/21 - 1200 79.8 - WNW | 294 2.2 8.3 13.5 0.00 - - - 0.00 73.1 82.4
9/24/21 - 1100 78.3 - WSW | 242 2.7 8.3 13.5 0.00 - - - 0.00 73.1 81.3
9/24/21 - 1000 76.5 - W | 270 2.8 7.7 13.6 0.00 - - - 0.00 73.1 79.0
9/24/21 - 0900 74.8 - WNW | 293 2.9 4.6 13.6 0.00 - - - 0.00 73.1 77.1
9/24/21 - 0800 74.1 - W | 269 4.3 6.1 13.6 0.00 - - - 0.00 73.1 77.1
9/24/21 - 0700 73.7 - WSW | 257 1.6 2.8 12.9 0.00 - - - 0.00 73.1 77.1
9/24/21 - 0600 74.9 - WSW | 241 1.7 4.2 12.9 0.00 - - - 0.00 73.6 77.1
9/24/21 - 0500 76.4 - W | 277 4.7 6.1 12.9 0.00 - - - 0.00 75.3 77.1
9/24/21 - 0400 76.5 - WSW | 248 4.6 5.9 12.9 0.00 - - - 0.00 75.3 77.1
9/24/21 - 0300 76.2 - WSW | 244 5.2 7.7 13.0 0.00 - - - 0.00 75.3 76.8
9/24/21 - 0200 76.2 - SW | 231 3.8 5.7 13.0 0.00 - - - 0.00 75.3 76.8
9/24/21 - 0100 76.7 - E | 80 3.5 7.0 13.0 0.00 - - - 0.00 68.1 84.9
9/24/21 - 0000 77.0 - ENE | 66 4.8 7.5 13.0 0.00 - - - 0.00 68.1 84.9
9/23/21 - 2300 76.3 - NNE | 20 4.2 10.5 13.0 0.00 - - - 0.00 68.1 84.9
9/23/21 - 2200 74.2 - NW | 312 8.1 12.9 13.0 0.00 - - - 0.00 68.1 84.9
9/23/21 - 2100 73.3 - NW | 318 8.6 13.4 13.0 0.00 - - - 0.00 68.1 84.9
9/23/21 - 2000 72.3 - WNW | 295 10.4 18.2 13.1 0.00 - - - 0.00 68.1 84.9
9/23/21 - 1900 75.0 - W | 274 12.6 21.7 13.1 0.00 - - - 0.00 68.1 84.9
9/23/21 - 1800 78.2 - W | 273 14.4 25.2 13.5 0.00 - - - 0.00 68.1 84.9
9/23/21 - 1700 82.0 - W | 267 10.9 24.3 13.4 0.00 - - - 0.00 68.1 84.9
9/23/21 - 1600 82.6 - W | 270 8.4 19.3 13.4 0.00 - - - 0.00 68.1 84.9
9/23/21 - 1500 81.8 - WSW | 250 9.1 21.0 13.4 0.00 - - - 0.00 68.1 84.3
9/23/21 - 1400 79.9 - WSW | 256 7.2 19.1 13.4 0.00 - - - 0.00 68.1 82.4
9/23/21 - 1300 79.9 - W | 263 4.2 14.7 13.5 0.00 - - - 0.00 68.1 82.2
9/23/21 - 1200 79.2 - E | 86 7.3 18.4 13.5 0.00 - - - 0.00 68.1 82.2
9/23/21 - 1100 76.1 - E | 86 7.8 14.7 13.5 0.00 - - - 0.00 68.1 78.2
9/23/21 - 1000 74.1 - ENE | 73 7.5 12.1 13.6 0.00 - - - 0.00 68.1 75.9
9/23/21 - 0900 72.6 - ENE | 73 9.0 12.5 13.6 0.00 - - - 0.00 68.1 74.9
9/23/21 - 0800 71.6 - ENE | 72 9.6 12.7 13.6 0.00 - - - 0.00 68.1 74.9
9/23/21 - 0700 69.8 - ENE | 71 11.0 13.6 12.8 0.00 - - - 0.00 68.1 74.9
9/23/21 - 0600 69.0 - E | 82 11.6 13.8 12.9 0.00 - - - 0.00 68.1 74.9
9/23/21 - 0500 69.7 - E | 86 11.1 14.2 12.9 0.00 - - - 0.00 69.1 74.9
9/23/21 - 0400 70.6 - ENE | 78 10.5 14.2 12.9 0.00 - - - 0.00 69.8 74.9
9/23/21 - 0300 71.9 - ENE | 71 9.4 13.8 13.0 0.00 - - - 0.00 71.1 74.9
9/23/21 - 0200 74.0 - ENE | 59 6.9 10.1 13.0 0.00 - - - 0.00 72.1 74.9
9/23/21 - 0100 74.3 - N | 10 3.7 7.5 13.0 0.00 - - - 0.00 67.3 80.3
9/23/21 - 0000 73.3 - NNW | 329 7.0 12.1 13.0 0.00 - - - 0.00 67.3 80.3
9/22/21 - 2300 72.0 - WNW | 301 6.9 14.2 13.0 0.00 - - - 0.00 67.3 80.3
9/22/21 - 2200 70.2 - NW | 312 6.1 14.9 13.0 0.00 - - - 0.00 67.3 80.3
9/22/21 - 2100 70.5 - WNW | 297 6.8 16.4 13.0 0.00 - - - 0.00 67.3 80.3
9/22/21 - 2000 68.8 - WNW | 292 8.8 17.5 13.1 0.00 - - - 0.00 67.3 80.3
9/22/21 - 1900 70.3 - W | 273 14.5 22.8 13.1 0.00 - - - 0.00 67.9 80.3
9/22/21 - 1800 74.1 - W | 270 14.6 24.6 13.5 0.00 - - - 0.00 69.1 80.3
9/22/21 - 1700 77.4 - W | 264 12.5 25.0 13.5 0.00 - - - 0.00 69.1 80.3
9/22/21 - 1600 77.7 - WSW | 253 10.1 21.9 13.5 0.00 - - - 0.00 69.1 80.2
9/22/21 - 1500 77.9 - WSW | 242 7.8 19.1 13.5 0.00 - - - 0.00 69.1 79.9
9/22/21 - 1400 76.3 - SW | 235 7.9 18.6 13.5 0.00 - - - 0.00 69.1 78.2
9/22/21 - 1300 75.6 - SW | 226 6.5 15.1 13.5 0.00 - - - 0.00 69.1 77.3
9/22/21 - 1200 74.8 - SW | 225 5.2 14.0 13.5 0.00 - - - 0.00 69.1 77.1
9/22/21 - 1100 73.7 - SW | 234 6.3 14.9 13.6 0.00 - - - 0.00 69.1 74.9
9/22/21 - 1000 72.0 - SW | 231 6.0 10.5 13.6 0.00 - - - 0.00 69.1 73.6
9/22/21 - 0900 70.8 - WSW | 239 6.3 9.4 13.6 0.00 - - - 0.00 69.1 71.8
9/22/21 - 0800 70.7 - SSW | 198 6.7 11.6 13.6 0.00 - - - 0.00 69.1 71.8
9/22/21 - 0700 69.5 - ESE | 109 6.0 10.1 12.9 0.00 - - - 0.00 69.1 71.8
9/22/21 - 0600 70.4 - SE | 137 4.1 8.8 12.9 0.00 - - - 0.00 69.8 71.8
9/22/21 - 0500 70.4 - SSE | 163 5.4 9.4 12.9 0.00 - - - 0.00 69.9 71.8
9/22/21 - 0400 70.6 - SW | 218 7.3 11.0 12.9 0.00 - - - 0.00 70.3 71.8
9/22/21 - 0300 70.9 - SSE | 168 6.4 11.8 13.0 0.00 - - - 0.00 70.5 71.8
9/22/21 - 0200 71.4 - SSW | 195 8.1 14.0 13.0 0.00 - - - 0.00 70.8 71.8
9/22/21 - 0100 71.8 - SSW | 203 7.5 12.5 13.0 0.00 - - - 0.00 64.4 86.4
9/22/21 - 0000 72.0 - S | 169 5.7 13.6 13.0 0.00 - - - 0.00 64.4 86.4
9/21/21 - 2300 72.2 - SE | 144 5.1 11.2 13.0 0.00 - - - 0.00 64.4 86.4
9/21/21 - 2200 73.2 - SSW | 209 8.7 15.1 13.0 0.00 - - - 0.00 64.4 86.4
9/21/21 - 2100 73.4 - SW | 220 9.4 15.8 13.0 0.00 - - - 0.00 64.4 86.4
9/21/21 - 2000 74.7 - SW | 233 12.2 19.1 13.1 0.00 - - - 0.00 64.4 86.4
9/21/21 - 1900 78.5 - SSW | 212 10.6 21.9 13.1 0.00 - - - 0.00 64.4 86.4
9/21/21 - 1800 81.6 - SW | 216 7.9 16.4 13.4 0.00 - - - 0.00 64.4 86.4
9/21/21 - 1700 82.2 - SSW | 208 9.1 21.0 13.4 0.00 - - - 0.00 64.4 86.4
9/21/21 - 1600 82.8 - SW | 214 9.7 23.2 13.4 0.00 - - - 0.00 64.4 86.4
9/21/21 - 1500 84.2 - SSE | 166 4.1 14.0 13.4 0.00 - - - 0.00 64.4 86.4
9/21/21 - 1400 81.4 - ESE | 123 4.3 12.7 13.4 0.00 - - - 0.00 64.4 85.0
Max 84.5 44.5 - 21.1 43.8 14.0 0.07 0.27 0.37 0.37 0.37 75.3 88.3
Avg 66.6 39.3 - 9.8 17.3 13.3 0.00 0.10 0.24 0.33 - - -
Min 40.7 34.0 - 1.6 2.8 12.7 0.00 0.01 0.01 0.10 0.00 40.3 43.0
Total - - - - - - 0.37 - - - - - -

Last 30 Days

Cow Mountain

Daily Data | America/Los_Angeles
as of 9/28/21 1:42 PM PDT
Date Daily Max Temp (°F) Time of Max Temp Daily Min Temp (°F) Time of Min Temp Daily Rain (In) Monthly Rain (In) Seasonal Rainfall (In) Daily Max Wind (mph) Time of Max Wind Max Wind Dir (°) Wind Spd (mph) Hrs <= 32F (hrs) Chilling <=45F (hrs) Storm Total (In) Daily Max Rain Intensity (In/Hr) Time of Max Rain Intensity Max 1 Min Rain (In) Max 1 Min Rain Time Max 15 Min Rain (In) Max 15 Min Precip Time Max 60 Min Rain (In) Max 60 Min Rain Time Bat Volt Min Day (V)
9/27/21 55.7 0102 42.3 0058 0.37 0.69 0.69 43.8 2002 W | 277 15.8 0.0 3.3 0.37 0.27 1455 0.01 0019 0.04 1650 0.08 1553 12.7
9/26/21 69.0 1531 50.1 2234 0.00 0.32 0.32 25.6 2111 WNW | 303 12.3 0.0 0.0 - - - - - - - - - 12.8
9/25/21 78.1 1427 59.6 2209 0.00 0.32 0.32 20.6 1213 SSW | 199 7.9 0.0 0.0 - - - - - - - - - 12.8
9/24/21 88.3 1501 69.3 2355 0.00 0.32 0.32 25.2 1713 W | 266 7.0 0.0 0.0 - - - - - - - - - 12.8
9/23/21 84.9 1512 68.1 0510 0.00 0.32 0.32 25.2 1754 W | 276 8.7 0.0 0.0 - - - - - - - - - 12.8
9/22/21 80.3 1614 67.3 1930 0.00 0.32 0.32 25.0 1636 WNW | 291 7.6 0.0 0.0 - - - - - - - - - 12.8
9/21/21 86.4 1415 64.4 0644 0.00 0.32 0.32 25.2 1044 E | 91 10.0 0.0 0.0 - - - - - - - - - 12.8
9/20/21 83.9 1606 59.7 0112 0.00 0.32 0.32 20.4 0536 NNE | 30 6.1 0.0 0.0 - - - - - - - - - 12.8
9/19/21 63.2 1547 46.1 0626 0.03 0.32 0.32 37.0 0338 W | 268 10.2 0.0 0.0 0.29 0.01 0101 0.01 0813 0.01 0827 0.01 0912 12.7
9/18/21 57.0 0156 46.2 0125 0.26 0.29 0.29 32.4 0056 W | 265 16.2 0.0 0.0 0.26 0.12 1839 0.01 0018 0.03 1843 0.05 1917 12.7
9/17/21 79.9 1358 47.3 0040 0.00 0.03 0.03 28.7 1748 WSW | 244 10.5 0.0 0.0 - - - - - - - - - 12.8
9/16/21 78.7 1309 61.3 0513 0.00 0.03 0.03 24.1 1802 W | 270 8.8 0.0 0.0 - - - - - - - - - 12.8
9/15/21 83.6 1206 62.7 0013 0.00 0.03 0.03 27.0 1649 WSW | 257 9.1 0.0 0.0 - - - - - - - - - 12.8
9/14/21 86.1 1501 72.7 2008 0.00 0.03 0.03 31.4 1643 W | 280 9.8 0.0 0.0 - - - - - - - - - 12.8
9/13/21 84.5 1625 69.0 0452 0.00 0.03 0.03 23.9 1707 W | 269 8.3 0.0 0.0 - - - - - - - - - 12.8
9/12/21 82.2 1434 68.2 2025 0.00 0.03 0.03 31.6 1851 W | 268 10.1 0.0 0.0 - - - - - - - - - 12.8
9/11/21 79.6 1507 62.4 0116 0.00 0.03 0.03 27.6 1735 W | 274 9.5 0.0 0.0 - - - - - - - - - 12.8
9/10/21 75.2 1524 60.2 0745 0.01 0.03 0.03 30.2 1814 W | 279 10.2 0.0 0.0 - 0.69 0101 0.01 0152 0.02 0104 0.02 0149 12.8
9/9/21 82.4 1244 65.0 0040 0.02 0.02 0.02 24.3 1330 W | 264 9.7 0.0 0.0 - 0.69 0050 0.01 0051 0.02 0101 0.02 0101 12.8
9/8/21 87.9 1456 70.5 0818 0.00 0.00 0.00 24.6 1438 W | 268 8.6 0.0 0.0 - - - - - - - - - 12.8
9/7/21 87.9 1040 74.3 1918 0.00 0.00 0.00 40.6 1628 WSW | 255 10.4 0.0 0.0 - - - - - - - - - 12.8
9/6/21 89.5 1519 70.9 0650 0.00 0.00 0.00 21.3 1528 SSW | 207 6.9 0.0 0.0 - - - - - - - - - 12.8
9/5/21 86.6 1618 71.9 0649 0.00 0.00 0.00 25.9 1655 WNW | 296 9.1 0.0 0.0 - - - - - - - - - 12.8
9/4/21 86.0 1638 65.2 0656 0.00 0.00 0.00 26.1 1702 WSW | 258 8.6 0.0 0.0 - - - - - - - - - 12.8
9/3/21 80.2 1534 59.6 0532 0.00 0.00 0.00 24.3 1705 W | 273 9.0 0.0 0.0 - - - - - - - - - 12.8
9/2/21 74.6 1619 58.3 0629 0.00 0.00 0.00 24.8 1607 W | 263 7.9 0.0 0.0 - - - - - - - - - 12.8
9/1/21 77.7 1233 59.3 1949 0.00 0.00 0.00 23.0 1656 W | 264 8.4 0.0 0.0 - - - - - - - - - 12.8
8/31/21 82.2 1038 64.5 2028 0.00 0.00 0.00 33.1 1624 W | 270 12.8 0.0 0.0 - - - - - - - - - 12.8
8/30/21 87.1 1518 69.7 2239 0.00 0.00 0.00 29.4 1737 WNW | 283 10.4 0.0 0.0 - - - - - - - - - 12.8
8/29/21 89.7 1515 77.8 2210 0.00 0.00 0.00 28.9 1610 WNW | 287 9.2 0.0 0.0 - - - - - - - - - 12.8
Max 89.7 - 77.8 - 0.37 0.69 - 43.8 - - 16.2 0.0 3.3 0.37 0.69 - 0.01 - 0.04 - 0.08 - 12.8
Avg - - - - - 0.13 - - - - 9.6 0.0 0.1 0.31 - - - - - - - - -
Min 55.7 - 42.3 - 0.00 0.00 - 20.4 - - 6.1 0.0 0.0 0.26 0.01 - 0.01 - 0.01 - 0.01 - 12.7
Total - - - - - - - - - - - 0.0 3.3 - - - - - - - - - -

Climate Summary

Cow Mountain

Current Year | Showing 1/1/21 - 9/27/21
as of 9/28/21 1:42 PM PDT
Temperature (°F) Precip (in) Days
Month Days Avg Max Avg Min Max Max Min Min Total Daily Min Temp < 32 Daily Max Temp > 90 Daily Rain > 0.01 Daily Rain > 0.1 Daily Max Wind > 30 Daily Max Wind > 40
Jan 2021 31 49.3 38.3 72.7 24.2 4.32 6 0 17 13 0 0
Feb 2021 28 51 37.9 67.6 27.5 2.85 7 0 12 10 0 0
Mar 2021 31 50.4 35.3 68.7 25.8 1.92 12 0 12 6 0 0
Apr 2021 30 61.9 45.1 73.8 31.3 0.41 1 0 3 1 0 0
May 2021 31 67.2 49.5 88.4 30.3 0.29 1 0 4 1 0 0
Jun 2021 30 76.4 58.5 94.2 35.5 0.21 0 4 4 0 0 0
Jul 2021 31 86.5 70.8 94.6 62.2 0 0 7 0 0 0 0
Aug 2021 31 84.1 67.3 93.1 54.6 0 0 4 0 0 0 0
Sep 2021 27 79.6 61.9 89.5 42.3 0.69 0 0 4 2 0 0
Total 270 - - - - 10.69 27 15 56 33 0 0
Average 30 67.4 51.6 - - 1.19 3 1.7 6.2 3.7 0 0
Maximum 31 86.5 70.8 94.6 - 4.32 12 7 17 13 0 0
Minimum 27 49.3 35.3 - 24.2 0 0 0 0 0 0 0

Climate Summary

Cow Mountain

Last Year | Showing 6/9/20 - 12/31/20
as of 9/28/21 1:42 PM PDT
Temperature (°F) Precip (in) Days
Month Days Avg Max Avg Min Max Max Min Min Total Daily Min Temp < 32 Daily Max Temp > 90 Daily Rain > 0.01 Daily Rain > 0.1 Daily Max Wind > 30 Daily Max Wind > 40
Jun 2020 22 74.2 58 91.4 40.1 0.09 0 1 3 0 0 0
Jul 2020 31 81.1 65.5 87.4 48.2 0 0 0 0 0 0 0
Aug 2020 31 82.9 67.2 93.6 56.4 0.18 0 3 1 1 0 0
Sep 2020 30 79.8 64.3 97.3 50.2 0.06 0 3 2 0 0 0
Oct 2020 31 75.4 61.8 89.2 45.6 0.1 0 0 1 0 0 0
Nov 2020 30 54.9 42.6 77.2 30 1.73 2 0 7 4 0 0
Dec 2020 31 52.4 40.1 65.5 31.6 3.73 1 0 12 8 0 0
Total 206 - - - - 5.89 3 7 26 13 0 0
Average 29.4 71.5 57.1 - - 0.84 0.4 1 3.7 1.9 0 0
Maximum 31 82.9 67.2 97.3 - 3.73 2 3 12 8 0 0
Minimum 22 52.4 40.1 - 30 0 0 0 0 0 0 0
Calm: 0.0%
Calm: 0.0%